sensor_id;sensor_type;location;lat;lon;timestamp;pressure;altitude;pressure_sealevel;temperature;humidity
9740;BME280;4909;42.680;26.324;2023-05-22T00:00:13;98184.22;;;18.85;56.63
9740;BME280;4909;42.680;26.324;2023-05-22T00:02:42;98182.19;;;18.78;56.67
9740;BME280;4909;42.680;26.324;2023-05-22T00:05:09;98194.13;;;18.85;56.82
9740;BME280;4909;42.680;26.324;2023-05-22T00:07:37;98187.31;;;18.81;57.13
9740;BME280;4909;42.680;26.324;2023-05-22T00:10:05;98184.75;;;18.79;57.09
9740;BME280;4909;42.680;26.324;2023-05-22T00:12:32;98179.91;;;18.73;57.21
9740;BME280;4909;42.680;26.324;2023-05-22T00:14:58;98173.88;;;18.81;57.78
9740;BME280;4909;42.680;26.324;2023-05-22T00:17:25;98179.16;;;18.71;58.24
9740;BME280;4909;42.680;26.324;2023-05-22T00:19:56;98180.22;;;18.80;58.01
9740;BME280;4909;42.680;26.324;2023-05-22T00:22:28;98181.06;;;18.80;58.29
9740;BME280;4909;42.680;26.324;2023-05-22T00:24:57;98176.81;;;18.78;58.35
9740;BME280;4909;42.680;26.324;2023-05-22T00:27:24;98174.13;;;18.78;58.65
9740;BME280;4909;42.680;26.324;2023-05-22T00:29:51;98184.63;;;18.81;58.61
9740;BME280;4909;42.680;26.324;2023-05-22T00:32:17;98157.66;;;18.71;58.70
9740;BME280;4909;42.680;26.324;2023-05-22T00:34:44;98161.09;;;18.73;58.68
9740;BME280;4909;42.680;26.324;2023-05-22T00:37:12;98154.84;;;18.73;58.39
9740;BME280;4909;42.680;26.324;2023-05-22T00:39:39;98160.81;;;18.76;58.51
9740;BME280;4909;42.680;26.324;2023-05-22T00:42:06;98155.44;;;18.76;58.94
9740;BME280;4909;42.680;26.324;2023-05-22T00:44:32;98160.22;;;18.73;58.80
9740;BME280;4909;42.680;26.324;2023-05-22T00:46:59;98157.66;;;18.71;58.59
9740;BME280;4909;42.680;26.324;2023-05-22T00:49:26;98161.22;;;18.72;58.67
9740;BME280;4909;42.680;26.324;2023-05-22T00:51:53;98161.66;;;18.77;58.80
9740;BME280;4909;42.680;26.324;2023-05-22T00:54:22;98136.94;;;18.62;58.70
9740;BME280;4909;42.680;26.324;2023-05-22T00:56:49;98135.63;;;18.45;59.13
9740;BME280;4909;42.680;26.324;2023-05-22T00:59:16;98154.50;;;18.66;59.65
9740;BME280;4909;42.680;26.324;2023-05-22T01:01:43;98156.22;;;18.67;58.90
9740;BME280;4909;42.680;26.324;2023-05-22T01:04:11;98155.16;;;18.58;59.16
9740;BME280;4909;42.680;26.324;2023-05-22T01:06:39;98150.25;;;18.63;58.84
9740;BME280;4909;42.680;26.324;2023-05-22T01:09:06;98154.97;;;18.71;58.80
9740;BME280;4909;42.680;26.324;2023-05-22T01:11:38;98146.44;;;18.66;58.59
9740;BME280;4909;42.680;26.324;2023-05-22T01:14:13;98138.78;;;18.61;58.77
9740;BME280;4909;42.680;26.324;2023-05-22T01:16:47;98089.25;;;18.43;58.51
9740;BME280;4909;42.680;26.324;2023-05-22T01:19:41;98153.47;;;18.78;58.26
9740;BME280;4909;42.680;26.324;2023-05-22T01:22:29;98146.00;;;18.82;58.28
9740;BME280;4909;42.680;26.324;2023-05-22T01:25:18;98157.00;;;18.79;58.04
9740;BME280;4909;42.680;26.324;2023-05-22T01:28:01;98146.63;;;18.74;58.08
9740;BME280;4909;42.680;26.324;2023-05-22T01:30:46;98143.44;;;18.80;58.26
9740;BME280;4909;42.680;26.324;2023-05-22T01:33:15;98141.59;;;18.81;58.52
9740;BME280;4909;42.680;26.324;2023-05-22T01:35:45;98102.41;;;18.57;58.63
9740;BME280;4909;42.680;26.324;2023-05-22T01:38:14;98121.47;;;18.75;58.46
9740;BME280;4909;42.680;26.324;2023-05-22T01:40:42;98114.66;;;18.71;58.32
9740;BME280;4909;42.680;26.324;2023-05-22T01:43:10;98146.75;;;18.93;58.10
9740;BME280;4909;42.680;26.324;2023-05-22T01:45:38;98146.19;;;18.90;58.39
9740;BME280;4909;42.680;26.324;2023-05-22T01:48:06;98151.03;;;18.96;58.35
9740;BME280;4909;42.680;26.324;2023-05-22T01:50:33;98126.44;;;18.80;58.37
9740;BME280;4909;42.680;26.324;2023-05-22T01:53:07;98142.13;;;18.95;58.74
9740;BME280;4909;42.680;26.324;2023-05-22T01:55:41;98146.63;;;18.95;58.57
9740;BME280;4909;42.680;26.324;2023-05-22T01:58:15;98150.59;;;18.91;58.62
9740;BME280;4909;42.680;26.324;2023-05-22T02:00:46;98145.31;;;18.89;59.34
9740;BME280;4909;42.680;26.324;2023-05-22T02:03:18;98122.19;;;18.77;59.32
9740;BME280;4909;42.680;26.324;2023-05-22T02:05:49;98138.78;;;18.82;59.22
9740;BME280;4909;42.680;26.324;2023-05-22T02:08:19;98150.47;;;18.92;59.43
9740;BME280;4909;42.680;26.324;2023-05-22T02:10:47;98153.66;;;18.86;59.48
9740;BME280;4909;42.680;26.324;2023-05-22T02:13:15;98109.22;;;18.50;60.08
9740;BME280;4909;42.680;26.324;2023-05-22T02:15:43;98150.41;;;18.83;59.63
9740;BME280;4909;42.680;26.324;2023-05-22T02:18:10;98149.78;;;18.79;59.98
9740;BME280;4909;42.680;26.324;2023-05-22T02:20:40;98158.78;;;18.89;60.50
9740;BME280;4909;42.680;26.324;2023-05-22T02:23:07;98151.84;;;18.87;60.71
9740;BME280;4909;42.680;26.324;2023-05-22T02:25:34;98150.47;;;18.92;60.90
9740;BME280;4909;42.680;26.324;2023-05-22T02:28:01;98161.53;;;18.99;61.38
9740;BME280;4909;42.680;26.324;2023-05-22T02:30:28;98144.34;;;18.90;61.57
9740;BME280;4909;42.680;26.324;2023-05-22T02:32:54;98126.50;;;18.89;61.92
9740;BME280;4909;42.680;26.324;2023-05-22T02:35:24;98159.75;;;19.09;61.91
9740;BME280;4909;42.680;26.324;2023-05-22T02:37:52;98138.16;;;18.99;62.44
9740;BME280;4909;42.680;26.324;2023-05-22T02:40:19;98157.06;;;19.09;62.83
9740;BME280;4909;42.680;26.324;2023-05-22T02:42:46;98148.59;;;19.14;62.78
9740;BME280;4909;42.680;26.324;2023-05-22T02:45:12;98143.44;;;19.01;63.45
9740;BME280;4909;42.680;26.324;2023-05-22T02:47:39;98143.16;;;19.04;63.33
9740;BME280;4909;42.680;26.324;2023-05-22T02:50:06;98150.81;;;19.08;63.96
9740;BME280;4909;42.680;26.324;2023-05-22T02:52:33;98152.00;;;19.16;63.96
9740;BME280;4909;42.680;26.324;2023-05-22T02:55:02;98145.66;;;19.17;64.28
9740;BME280;4909;42.680;26.324;2023-05-22T02:57:29;98152.63;;;19.29;63.89
9740;BME280;4909;42.680;26.324;2023-05-22T02:59:56;98138.16;;;19.20;64.01
9740;BME280;4909;42.680;26.324;2023-05-22T03:02:24;98143.34;;;19.12;64.87
9740;BME280;4909;42.680;26.324;2023-05-22T03:04:51;98145.44;;;19.08;64.97
9740;BME280;4909;42.680;26.324;2023-05-22T03:07:18;98152.53;;;19.09;65.30
9740;BME280;4909;42.680;26.324;2023-05-22T03:09:45;98161.34;;;19.12;65.18
9740;BME280;4909;42.680;26.324;2023-05-22T03:12:13;98164.44;;;18.86;65.93
9740;BME280;4909;42.680;26.324;2023-05-22T03:14:40;98167.97;;;18.87;65.28
9740;BME280;4909;42.680;26.324;2023-05-22T03:17:07;98174.59;;;18.83;65.64
9740;BME280;4909;42.680;26.324;2023-05-22T03:19:34;98177.19;;;18.94;65.26
9740;BME280;4909;42.680;26.324;2023-05-22T03:22:00;98181.66;;;19.04;64.90
9740;BME280;4909;42.680;26.324;2023-05-22T03:24:27;98176.09;;;18.96;64.72
9740;BME280;4909;42.680;26.324;2023-05-22T03:26:54;98186.78;;;18.87;65.56
9740;BME280;4909;42.680;26.324;2023-05-22T03:29:22;98196.69;;;18.86;65.27
9740;BME280;4909;42.680;26.324;2023-05-22T03:31:49;98192.81;;;18.79;66.32
9740;BME280;4909;42.680;26.324;2023-05-22T03:34:15;98204.88;;;18.53;68.19
9740;BME280;4909;42.680;26.324;2023-05-22T03:36:42;98195.75;;;18.44;68.38
9740;BME280;4909;42.680;26.324;2023-05-22T03:39:09;98201.38;;;18.41;68.60
9740;BME280;4909;42.680;26.324;2023-05-22T03:41:36;98198.59;;;18.32;69.11
9740;BME280;4909;42.680;26.324;2023-05-22T03:44:03;98183.22;;;18.34;70.14
9740;BME280;4909;42.680;26.324;2023-05-22T03:46:31;98189.66;;;18.53;69.48
9740;BME280;4909;42.680;26.324;2023-05-22T03:48:58;98197.13;;;18.71;69.19
9740;BME280;4909;42.680;26.324;2023-05-22T03:51:25;98179.38;;;18.58;68.66
9740;BME280;4909;42.680;26.324;2023-05-22T03:53:51;98194.63;;;18.58;68.04
9740;BME280;4909;42.680;26.324;2023-05-22T03:56:18;98190.69;;;18.62;69.11
9740;BME280;4909;42.680;26.324;2023-05-22T03:58:45;98202.25;;;18.74;69.88
9740;BME280;4909;42.680;26.324;2023-05-22T04:01:12;98205.47;;;18.67;69.29
9740;BME280;4909;42.680;26.324;2023-05-22T04:03:40;98197.31;;;18.47;69.60
9740;BME280;4909;42.680;26.324;2023-05-22T04:06:07;98207.88;;;18.71;69.19
9740;BME280;4909;42.680;26.324;2023-05-22T04:08:35;98206.00;;;18.82;70.45
9740;BME280;4909;42.680;26.324;2023-05-22T04:11:02;98193.88;;;18.88;70.80
9740;BME280;4909;42.680;26.324;2023-05-22T04:13:30;98212.50;;;19.21;70.86
9740;BME280;4909;42.680;26.324;2023-05-22T04:15:57;98209.19;;;19.38;70.69
9740;BME280;4909;42.680;26.324;2023-05-22T04:18:26;98216.09;;;19.52;70.43
9740;BME280;4909;42.680;26.324;2023-05-22T04:20:54;98208.09;;;19.71;70.61
9740;BME280;4909;42.680;26.324;2023-05-22T04:23:21;98198.06;;;19.73;69.72
9740;BME280;4909;42.680;26.324;2023-05-22T04:25:48;98204.88;;;19.77;68.97
9740;BME280;4909;42.680;26.324;2023-05-22T04:28:15;98210.19;;;19.98;68.33
9740;BME280;4909;42.680;26.324;2023-05-22T04:30:42;98215.31;;;20.11;67.66
9740;BME280;4909;42.680;26.324;2023-05-22T04:33:09;98214.41;;;20.31;67.46
9740;BME280;4909;42.680;26.324;2023-05-22T04:35:36;98213.03;;;20.56;66.27
9740;BME280;4909;42.680;26.324;2023-05-22T04:38:06;98219.97;;;20.77;66.08
9740;BME280;4909;42.680;26.324;2023-05-22T04:40:33;98209.63;;;20.73;65.34
9740;BME280;4909;42.680;26.324;2023-05-22T04:43:02;98225.97;;;20.91;64.49
9740;BME280;4909;42.680;26.324;2023-05-22T04:45:29;98217.00;;;21.00;64.85
9740;BME280;4909;42.680;26.324;2023-05-22T04:47:57;98221.88;;;21.15;64.71
9740;BME280;4909;42.680;26.324;2023-05-22T04:50:26;98224.56;;;21.15;63.78
9740;BME280;4909;42.680;26.324;2023-05-22T04:52:57;98226.06;;;21.37;63.41
9740;BME280;4909;42.680;26.324;2023-05-22T04:55:25;98219.41;;;21.32;63.09
9740;BME280;4909;42.680;26.324;2023-05-22T04:57:52;98225.94;;;21.39;63.37
9740;BME280;4909;42.680;26.324;2023-05-22T05:00:20;98227.19;;;21.44;62.94
9740;BME280;4909;42.680;26.324;2023-05-22T05:02:50;98205.31;;;21.38;61.76
9740;BME280;4909;42.680;26.324;2023-05-22T05:05:17;98241.09;;;21.59;60.80
9740;BME280;4909;42.680;26.324;2023-05-22T05:07:45;98238.72;;;21.74;60.60
9740;BME280;4909;42.680;26.324;2023-05-22T05:10:11;98234.28;;;21.45;61.66
9740;BME280;4909;42.680;26.324;2023-05-22T05:12:40;98232.13;;;21.58;61.01
9740;BME280;4909;42.680;26.324;2023-05-22T05:15:07;98238.19;;;21.70;60.84
9740;BME280;4909;42.680;26.324;2023-05-22T05:17:34;98226.31;;;21.53;59.33
9740;BME280;4909;42.680;26.324;2023-05-22T05:20:01;98238.09;;;21.52;59.51
9740;BME280;4909;42.680;26.324;2023-05-22T05:22:30;98222.63;;;21.45;59.44
9740;BME280;4909;42.680;26.324;2023-05-22T05:24:57;98229.16;;;21.52;59.81
9740;BME280;4909;42.680;26.324;2023-05-22T05:27:24;98242.19;;;21.66;59.94
9740;BME280;4909;42.680;26.324;2023-05-22T05:29:52;98239.00;;;21.80;57.81
9740;BME280;4909;42.680;26.324;2023-05-22T05:32:19;98228.50;;;21.77;56.98
9740;BME280;4909;42.680;26.324;2023-05-22T05:34:45;98225.16;;;21.56;57.41
9740;BME280;4909;42.680;26.324;2023-05-22T05:37:12;98233.25;;;21.56;57.87
9740;BME280;4909;42.680;26.324;2023-05-22T05:39:39;98232.66;;;21.72;57.83
9740;BME280;4909;42.680;26.324;2023-05-22T05:42:06;98222.91;;;21.88;57.14
9740;BME280;4909;42.680;26.324;2023-05-22T05:44:32;98223.09;;;21.77;57.04
9740;BME280;4909;42.680;26.324;2023-05-22T05:47:01;98235.41;;;21.89;55.03
9740;BME280;4909;42.680;26.324;2023-05-22T05:49:27;98233.56;;;21.90;53.44
9740;BME280;4909;42.680;26.324;2023-05-22T05:51:54;98233.22;;;22.12;54.35
9740;BME280;4909;42.680;26.324;2023-05-22T05:54:21;98238.25;;;22.25;54.30
9740;BME280;4909;42.680;26.324;2023-05-22T05:56:50;98229.31;;;22.42;52.13
9740;BME280;4909;42.680;26.324;2023-05-22T05:59:17;98228.97;;;22.54;50.98
9740;BME280;4909;42.680;26.324;2023-05-22T06:01:44;98229.50;;;22.58;51.41
9740;BME280;4909;42.680;26.324;2023-05-22T06:04:13;98237.41;;;22.69;49.65
9740;BME280;4909;42.680;26.324;2023-05-22T06:06:40;98251.38;;;22.74;45.89
9740;BME280;4909;42.680;26.324;2023-05-22T06:09:08;98235.13;;;22.74;46.49
9740;BME280;4909;42.680;26.324;2023-05-22T06:11:35;98237.59;;;22.85;47.15
9740;BME280;4909;42.680;26.324;2023-05-22T06:14:03;98251.59;;;22.99;45.68
9740;BME280;4909;42.680;26.324;2023-05-22T06:16:31;98241.63;;;22.99;45.38
9740;BME280;4909;42.680;26.324;2023-05-22T06:18:59;98231.69;;;22.90;45.61
9740;BME280;4909;42.680;26.324;2023-05-22T06:21:27;98252.28;;;23.01;46.03
9740;BME280;4909;42.680;26.324;2023-05-22T06:23:53;98254.84;;;22.84;45.11
9740;BME280;4909;42.680;26.324;2023-05-22T06:26:20;98226.16;;;22.46;47.83
9740;BME280;4909;42.680;26.324;2023-05-22T06:28:47;98242.63;;;22.53;45.78
9740;BME280;4909;42.680;26.324;2023-05-22T06:31:16;98250.81;;;22.43;46.10
9740;BME280;4909;42.680;26.324;2023-05-22T06:33:42;98246.06;;;22.55;47.36
9740;BME280;4909;42.680;26.324;2023-05-22T06:36:09;98258.88;;;22.53;48.65
9740;BME280;4909;42.680;26.324;2023-05-22T06:38:38;98248.88;;;22.36;50.46
9740;BME280;4909;42.680;26.324;2023-05-22T06:41:05;98251.72;;;22.34;49.28
9740;BME280;4909;42.680;26.324;2023-05-22T06:43:32;98248.50;;;22.31;49.66
9740;BME280;4909;42.680;26.324;2023-05-22T06:45:59;98248.16;;;22.34;50.54
9740;BME280;4909;42.680;26.324;2023-05-22T06:48:26;98249.97;;;22.43;49.88
9740;BME280;4909;42.680;26.324;2023-05-22T06:50:53;98257.41;;;22.41;48.38
9740;BME280;4909;42.680;26.324;2023-05-22T06:53:19;98249.28;;;22.59;47.67
9740;BME280;4909;42.680;26.324;2023-05-22T06:55:49;98252.03;;;22.76;47.75
9740;BME280;4909;42.680;26.324;2023-05-22T06:58:16;98233.50;;;22.99;47.62
9740;BME280;4909;42.680;26.324;2023-05-22T07:00:43;98250.34;;;23.28;47.67
9740;BME280;4909;42.680;26.324;2023-05-22T07:03:10;98252.03;;;23.47;44.93
9740;BME280;4909;42.680;26.324;2023-05-22T07:05:36;98235.13;;;23.35;41.92
9740;BME280;4909;42.680;26.324;2023-05-22T07:08:03;98249.47;;;23.46;41.14
9740;BME280;4909;42.680;26.324;2023-05-22T07:10:30;98252.56;;;23.51;43.05
9740;BME280;4909;42.680;26.324;2023-05-22T07:12:58;98253.06;;;23.54;42.48
9740;BME280;4909;42.680;26.324;2023-05-22T07:15:25;98238.84;;;23.34;39.39
9740;BME280;4909;42.680;26.324;2023-05-22T07:17:52;98242.94;;;23.38;40.34
9740;BME280;4909;42.680;26.324;2023-05-22T07:20:19;98254.56;;;23.49;39.89
9740;BME280;4909;42.680;26.324;2023-05-22T07:22:46;98245.28;;;23.51;40.43
9740;BME280;4909;42.680;26.324;2023-05-22T07:25:12;98256.25;;;23.50;41.11
9740;BME280;4909;42.680;26.324;2023-05-22T07:27:39;98251.56;;;23.52;41.32
9740;BME280;4909;42.680;26.324;2023-05-22T07:30:08;98249.69;;;23.52;41.90
9740;BME280;4909;42.680;26.324;2023-05-22T07:32:35;98250.91;;;23.40;41.98
9740;BME280;4909;42.680;26.324;2023-05-22T07:35:02;98240.94;;;23.40;42.62
9740;BME280;4909;42.680;26.324;2023-05-22T07:37:29;98252.03;;;23.47;43.63
9740;BME280;4909;42.680;26.324;2023-05-22T07:39:56;98246.75;;;23.46;42.29
9740;BME280;4909;42.680;26.324;2023-05-22T07:42:23;98236.84;;;23.36;41.41
9740;BME280;4909;42.680;26.324;2023-05-22T07:44:50;98242.56;;;23.33;41.53
9740;BME280;4909;42.680;26.324;2023-05-22T07:47:18;98247.44;;;23.30;40.51
9740;BME280;4909;42.680;26.324;2023-05-22T07:49:45;98246.78;;;23.28;41.94
9740;BME280;4909;42.680;26.324;2023-05-22T07:52:12;98238.41;;;23.21;41.28
9740;BME280;4909;42.680;26.324;2023-05-22T07:54:39;98239.06;;;23.41;41.35
9740;BME280;4909;42.680;26.324;2023-05-22T07:57:06;98247.34;;;23.83;39.96
9740;BME280;4909;42.680;26.324;2023-05-22T07:59:33;98233.41;;;24.12;38.78
9740;BME280;4909;42.680;26.324;2023-05-22T08:02:00;98234.03;;;24.32;38.43
9740;BME280;4909;42.680;26.324;2023-05-22T08:04:28;98237.88;;;24.63;37.74
9740;BME280;4909;42.680;26.324;2023-05-22T08:06:55;98236.94;;;24.88;38.61
9740;BME280;4909;42.680;26.324;2023-05-22T08:09:22;98235.03;;;24.89;37.28
9740;BME280;4909;42.680;26.324;2023-05-22T08:11:49;98235.00;;;24.81;37.80
9740;BME280;4909;42.680;26.324;2023-05-22T08:14:15;98248.06;;;24.85;38.59
9740;BME280;4909;42.680;26.324;2023-05-22T08:16:42;98232.28;;;24.73;44.68
9740;BME280;4909;42.680;26.324;2023-05-22T08:19:09;98243.47;;;24.69;45.64
9740;BME280;4909;42.680;26.324;2023-05-22T08:21:37;98184.34;;;24.23;41.60
9740;BME280;4909;42.680;26.324;2023-05-22T08:24:05;98250.72;;;24.53;40.87
9740;BME280;4909;42.680;26.324;2023-05-22T08:26:32;98230.47;;;24.31;44.29
9740;BME280;4909;42.680;26.324;2023-05-22T08:28:59;98259.13;;;24.34;45.10
9740;BME280;4909;42.680;26.324;2023-05-22T08:31:25;98256.94;;;24.29;43.18
9740;BME280;4909;42.680;26.324;2023-05-22T08:33:53;98236.63;;;24.07;43.87
9740;BME280;4909;42.680;26.324;2023-05-22T08:36:26;98225.97;;;24.14;44.39
9740;BME280;4909;42.680;26.324;2023-05-22T08:38:55;98230.53;;;24.55;49.61
9740;BME280;4909;42.680;26.324;2023-05-22T08:41:22;98229.88;;;24.61;48.83
9740;BME280;4909;42.680;26.324;2023-05-22T08:43:49;98247.72;;;24.72;47.33
9740;BME280;4909;42.680;26.324;2023-05-22T08:46:17;98244.75;;;24.41;45.27
9740;BME280;4909;42.680;26.324;2023-05-22T08:48:44;98228.50;;;24.49;46.38
9740;BME280;4909;42.680;26.324;2023-05-22T08:51:12;98218.88;;;24.63;42.00
9740;BME280;4909;42.680;26.324;2023-05-22T08:53:41;98221.91;;;24.60;42.09
9740;BME280;4909;42.680;26.324;2023-05-22T08:56:11;98243.16;;;24.73;43.19
9740;BME280;4909;42.680;26.324;2023-05-22T08:58:38;98215.81;;;24.58;42.27
9740;BME280;4909;42.680;26.324;2023-05-22T09:01:07;98237.00;;;24.62;41.15
9740;BME280;4909;42.680;26.324;2023-05-22T09:03:35;98157.94;;;24.41;41.42
9740;BME280;4909;42.680;26.324;2023-05-22T09:06:02;98204.47;;;24.79;40.35
9740;BME280;4909;42.680;26.324;2023-05-22T09:08:29;98210.38;;;24.74;41.21
9740;BME280;4909;42.680;26.324;2023-05-22T09:10:56;98222.50;;;25.04;43.40
9740;BME280;4909;42.680;26.324;2023-05-22T09:13:25;98190.94;;;24.95;41.81
9740;BME280;4909;42.680;26.324;2023-05-22T09:15:53;98235.41;;;25.02;39.58
9740;BME280;4909;42.680;26.324;2023-05-22T09:18:26;98187.97;;;24.48;40.10
9740;BME280;4909;42.680;26.324;2023-05-22T09:20:52;98233.28;;;24.63;39.90
9740;BME280;4909;42.680;26.324;2023-05-22T09:23:22;98218.66;;;24.48;41.55
9740;BME280;4909;42.680;26.324;2023-05-22T09:25:53;98200.84;;;24.38;40.76
9740;BME280;4909;42.680;26.324;2023-05-22T09:28:20;98231.94;;;24.67;39.01
9740;BME280;4909;42.680;26.324;2023-05-22T09:30:49;98205.13;;;24.64;39.92
9740;BME280;4909;42.680;26.324;2023-05-22T09:33:16;98197.16;;;24.71;41.09
9740;BME280;4909;42.680;26.324;2023-05-22T09:35:45;98218.94;;;25.03;39.92
9740;BME280;4909;42.680;26.324;2023-05-22T09:38:12;98221.16;;;25.00;39.88
9740;BME280;4909;42.680;26.324;2023-05-22T09:40:40;98201.28;;;24.83;39.73
9740;BME280;4909;42.680;26.324;2023-05-22T09:43:07;98166.31;;;24.64;42.01
9740;BME280;4909;42.680;26.324;2023-05-22T09:45:35;98211.47;;;25.05;39.54
9740;BME280;4909;42.680;26.324;2023-05-22T09:48:05;98209.78;;;25.21;41.64
9740;BME280;4909;42.680;26.324;2023-05-22T09:50:31;98213.69;;;25.18;40.49
9740;BME280;4909;42.680;26.324;2023-05-22T09:53:00;98208.25;;;25.10;40.76
9740;BME280;4909;42.680;26.324;2023-05-22T09:55:27;98211.97;;;25.09;41.75
9740;BME280;4909;42.680;26.324;2023-05-22T09:57:55;98178.03;;;25.13;40.85
9740;BME280;4909;42.680;26.324;2023-05-22T10:00:23;98216.56;;;25.08;39.85
9740;BME280;4909;42.680;26.324;2023-05-22T10:02:57;98216.22;;;24.95;39.93
9740;BME280;4909;42.680;26.324;2023-05-22T10:05:30;98163.09;;;24.77;40.31
9740;BME280;4909;42.680;26.324;2023-05-22T10:08:03;98222.19;;;25.31;42.33
9740;BME280;4909;42.680;26.324;2023-05-22T10:10:31;98187.91;;;24.98;42.83
9740;BME280;4909;42.680;26.324;2023-05-22T10:13:01;98241.88;;;24.93;44.74
9740;BME280;4909;42.680;26.324;2023-05-22T10:15:29;98224.06;;;24.40;44.98
9740;BME280;4909;42.680;26.324;2023-05-22T10:17:57;98232.38;;;24.39;45.50
9740;BME280;4909;42.680;26.324;2023-05-22T10:20:25;98197.91;;;24.31;46.05
9740;BME280;4909;42.680;26.324;2023-05-22T10:22:54;98237.81;;;24.47;45.62
9740;BME280;4909;42.680;26.324;2023-05-22T10:25:21;98199.78;;;24.31;46.50
9740;BME280;4909;42.680;26.324;2023-05-22T10:27:51;98232.94;;;24.16;48.43
9740;BME280;4909;42.680;26.324;2023-05-22T10:30:22;98232.66;;;24.28;49.64
9740;BME280;4909;42.680;26.324;2023-05-22T10:32:52;98235.13;;;24.13;49.52
9740;BME280;4909;42.680;26.324;2023-05-22T10:35:26;98214.13;;;23.81;50.13
9740;BME280;4909;42.680;26.324;2023-05-22T10:38:05;98217.16;;;23.78;52.03
9740;BME280;4909;42.680;26.324;2023-05-22T10:40:37;98228.31;;;23.75;54.86
9740;BME280;4909;42.680;26.324;2023-05-22T10:43:05;98222.50;;;23.62;54.86
9740;BME280;4909;42.680;26.324;2023-05-22T10:45:31;98216.00;;;23.55;55.30
9740;BME280;4909;42.680;26.324;2023-05-22T10:48:05;98152.66;;;23.30;55.15
9740;BME280;4909;42.680;26.324;2023-05-22T10:50:32;98162.88;;;23.36;54.96
9740;BME280;4909;42.680;26.324;2023-05-22T10:53:22;98199.88;;;23.79;55.06
9740;BME280;4909;42.680;26.324;2023-05-22T10:55:50;98185.94;;;24.00;54.66
9740;BME280;4909;42.680;26.324;2023-05-22T10:58:17;98182.38;;;24.07;53.66
9740;BME280;4909;42.680;26.324;2023-05-22T11:03:52;98169.94;;;24.22;53.83
9740;BME280;4909;42.680;26.324;2023-05-22T11:06:29;98161.94;;;24.21;54.48
9740;BME280;4909;42.680;26.324;2023-05-22T11:08:58;98169.88;;;24.14;55.29
9740;BME280;4909;42.680;26.324;2023-05-22T11:11:26;98154.06;;;24.02;56.28
9740;BME280;4909;42.680;26.324;2023-05-22T11:13:52;98152.91;;;24.04;56.34
9740;BME280;4909;42.680;26.324;2023-05-22T11:16:30;98147.06;;;23.83;56.79
9740;BME280;4909;42.680;26.324;2023-05-22T11:19:04;98176.00;;;23.74;57.76
9740;BME280;4909;42.680;26.324;2023-05-22T11:21:34;98167.03;;;23.48;59.46
9740;BME280;4909;42.680;26.324;2023-05-22T11:24:06;98151.78;;;23.21;58.23
9740;BME280;4909;42.680;26.324;2023-05-22T11:26:34;98178.84;;;23.21;57.94
9740;BME280;4909;42.680;26.324;2023-05-22T11:29:01;98179.84;;;23.20;56.40
9740;BME280;4909;42.680;26.324;2023-05-22T11:31:32;98148.47;;;22.84;56.50
9740;BME280;4909;42.680;26.324;2023-05-22T11:34:01;98121.09;;;22.69;59.00
9740;BME280;4909;42.680;26.324;2023-05-22T11:36:28;98144.09;;;22.91;58.75
9740;BME280;4909;42.680;26.324;2023-05-22T11:38:56;98158.72;;;22.98;58.96
9740;BME280;4909;42.680;26.324;2023-05-22T11:41:29;98156.06;;;23.06;56.66
9740;BME280;4909;42.680;26.324;2023-05-22T11:43:55;98139.81;;;23.06;54.50
9740;BME280;4909;42.680;26.324;2023-05-22T11:46:22;98138.50;;;23.10;54.46
9740;BME280;4909;42.680;26.324;2023-05-22T11:48:50;98097.84;;;23.02;53.97
9740;BME280;4909;42.680;26.324;2023-05-22T11:51:18;98145.44;;;23.38;52.17
9740;BME280;4909;42.680;26.324;2023-05-22T11:53:45;98106.81;;;23.28;52.82
9740;BME280;4909;42.680;26.324;2023-05-22T11:56:12;98139.03;;;23.39;52.25
9740;BME280;4909;42.680;26.324;2023-05-22T11:58:41;98148.41;;;23.45;51.51
9740;BME280;4909;42.680;26.324;2023-05-22T12:01:07;98154.78;;;23.44;54.05
9740;BME280;4909;42.680;26.324;2023-05-22T12:03:34;98126.59;;;23.29;52.19
9740;BME280;4909;42.680;26.324;2023-05-22T12:06:01;98150.97;;;23.47;52.12
9740;BME280;4909;42.680;26.324;2023-05-22T12:08:28;98154.53;;;23.47;52.80
9740;BME280;4909;42.680;26.324;2023-05-22T12:10:55;98146.06;;;23.50;52.43
9740;BME280;4909;42.680;26.324;2023-05-22T12:13:26;98153.94;;;23.44;52.15
9740;BME280;4909;42.680;26.324;2023-05-22T12:15:57;98173.84;;;23.34;52.75
9740;BME280;4909;42.680;26.324;2023-05-22T12:18:24;98164.31;;;23.22;53.21
9740;BME280;4909;42.680;26.324;2023-05-22T12:20:52;98179.44;;;23.07;52.54
9740;BME280;4909;42.680;26.324;2023-05-22T12:23:21;98161.91;;;22.93;53.50
9740;BME280;4909;42.680;26.324;2023-05-22T12:25:55;98172.31;;;23.06;54.02
9740;BME280;4909;42.680;26.324;2023-05-22T12:28:22;98168.94;;;23.04;54.82
9740;BME280;4909;42.680;26.324;2023-05-22T12:30:51;98176.66;;;22.99;55.20
9740;BME280;4909;42.680;26.324;2023-05-22T12:33:23;98176.59;;;22.91;56.82
9740;BME280;4909;42.680;26.324;2023-05-22T12:35:50;98191.09;;;22.90;55.93
9740;BME280;4909;42.680;26.324;2023-05-22T12:38:20;98138.56;;;22.39;56.21
9740;BME280;4909;42.680;26.324;2023-05-22T12:40:47;98153.41;;;22.35;59.64
9740;BME280;4909;42.680;26.324;2023-05-22T12:43:15;98165.91;;;22.36;61.94
9740;BME280;4909;42.680;26.324;2023-05-22T12:45:41;98150.19;;;22.04;62.20
9740;BME280;4909;42.680;26.324;2023-05-22T12:48:08;98140.34;;;21.76;62.28
9740;BME280;4909;42.680;26.324;2023-05-22T12:50:37;98159.84;;;22.07;62.65
9740;BME280;4909;42.680;26.324;2023-05-22T12:53:04;98162.63;;;21.97;63.88
9740;BME280;4909;42.680;26.324;2023-05-22T12:55:31;98158.53;;;22.11;64.70
9740;BME280;4909;42.680;26.324;2023-05-22T12:57:58;98158.88;;;22.26;63.69
9740;BME280;4909;42.680;26.324;2023-05-22T13:00:25;98140.06;;;22.06;63.55
9740;BME280;4909;42.680;26.324;2023-05-22T13:02:52;98160.56;;;22.27;62.87
9740;BME280;4909;42.680;26.324;2023-05-22T13:05:19;98153.94;;;22.39;61.84
9740;BME280;4909;42.680;26.324;2023-05-22T13:07:47;98163.81;;;22.48;58.11
9740;BME280;4909;42.680;26.324;2023-05-22T13:10:14;98166.78;;;22.54;57.09
9740;BME280;4909;42.680;26.324;2023-05-22T13:12:41;98169.63;;;22.71;61.74
9740;BME280;4909;42.680;26.324;2023-05-22T13:15:09;98136.53;;;22.41;67.82
9740;BME280;4909;42.680;26.324;2023-05-22T13:17:38;98159.22;;;22.13;70.18